Time;durP1;ratioP1;P1;durP2;ratioP2;P2;SDS_P1;SDS_P2;PMS_P1;PMS_P2;Temp;Humidity;BMP_temperature;BMP_pressure;BME280_temperature;BME280_humidity;BME280_pressure;Samples;Min_cycle;Max_cycle;Signal;HPM_P1;HPM_P2
2021/06/03 00:02:27;;;;;;;4.78;3.63;;;;;;;19.50;72.92;100680.00;5031951;28;20091;-67
2021/06/03 00:05:11;;;;;;;5.57;3.10;;;;;;;19.43;71.89;100676.41;5033203;28;20040;-67
2021/06/03 00:07:56;;;;;;;4.88;3.42;;;;;;;19.37;74.43;100681.75;5032871;28;20521;-65
2021/06/03 00:10:44;;;;;;;5.30;3.97;;;;;;;19.28;74.08;100674.78;5032156;28;20513;-67
2021/06/03 00:13:30;;;;;;;6.45;3.88;;;;;;;19.26;74.57;100679.50;5031930;28;20053;-67
2021/06/03 00:16:16;;;;;;;4.55;3.50;;;;;;;19.24;73.64;100678.88;5033354;28;20048;-67
2021/06/03 00:19:03;;;;;;;4.03;3.63;;;;;;;19.23;74.68;100686.16;5036717;28;20095;-64
2021/06/03 00:21:47;;;;;;;11.70;3.90;;;;;;;19.22;75.71;100680.94;5035664;28;20048;-67
2021/06/03 00:24:31;;;;;;;5.30;3.75;;;;;;;19.33;71.96;100678.59;5036148;28;20548;-67
2021/06/03 00:27:14;;;;;;;5.63;3.83;;;;;;;19.39;72.05;100683.22;5035909;28;20044;-67
2021/06/03 00:29:58;;;;;;;4.28;3.58;;;;;;;19.46;72.10;100683.28;5036833;28;20057;-67
2021/06/03 00:32:42;;;;;;;6.40;3.72;;;;;;;19.54;72.06;100681.31;5036756;28;20075;-67
2021/06/03 00:35:27;;;;;;;4.22;3.58;;;;;;;19.55;71.63;100679.44;5036575;28;20139;-66
2021/06/03 00:38:12;;;;;;;4.93;3.70;;;;;;;19.52;72.80;100669.00;5021584;28;20091;-67
2021/06/03 00:40:55;;;;;;;3.67;3.30;;;;;;;19.44;74.84;100680.78;5035606;28;20414;-67
2021/06/03 00:43:40;;;;;;;5.55;3.60;;;;;;;19.36;75.75;100677.34;5036567;28;20048;-65
2021/06/03 00:46:24;;;;;;;3.70;3.03;;;;;;;19.32;76.94;100681.47;5035113;28;20521;-67
2021/06/03 00:49:07;;;;;;;5.35;3.78;;;;;;;19.27;78.05;100678.50;5036200;28;20088;-67
2021/06/03 00:51:52;;;;;;;6.22;3.38;;;;;;;19.20;78.53;100683.81;5035450;28;20088;-67
2021/06/03 00:54:36;;;;;;;5.10;3.35;;;;;;;19.17;78.80;100677.94;5036039;28;20055;-67
2021/06/03 00:57:19;;;;;;;3.83;3.42;;;;;;;19.12;79.25;100683.06;5034938;28;20071;-67
2021/06/03 01:00:06;;;;;;;4.75;3.95;;;;;;;19.09;79.60;100691.56;5035520;28;20052;-67
2021/06/03 01:02:51;;;;;;;4.88;3.70;;;;;;;19.03;79.80;100686.88;5035995;28;20056;-67
2021/06/03 01:05:42;;;;;;;5.45;3.50;;;;;;;19.12;75.42;100680.34;5034884;28;20529;-67
2021/06/03 01:08:39;;;;;;;6.95;3.63;;;;;;;19.26;74.59;100687.63;5035048;28;20060;-66
2021/06/03 01:11:44;;;;;;;6.35;3.92;;;;;;;19.32;74.16;100685.03;5020928;28;20043;-67
2021/06/03 01:14:30;;;;;;;;;;;;;;;19.33;74.15;100696.66;5035416;28;20040;-67
2021/06/03 01:17:16;;;;;;;4.13;3.50;;;;;;;19.36;74.16;100693.56;5034929;28;19920;-67
2021/06/03 01:20:01;;;;;;;4.90;3.78;;;;;;;19.34;74.24;100696.47;5021011;28;20075;-67
2021/06/03 01:22:52;;;;;;;5.63;3.70;;;;;;;19.41;74.42;100701.97;5034800;28;20052;-67
2021/06/03 01:25:36;;;;;;;4.18;3.78;;;;;;;19.45;73.87;100701.38;5034765;28;20048;-67
2021/06/03 01:28:21;;;;;;;4.60;3.90;;;;;;;19.47;73.74;100695.78;5034110;28;20095;-67
2021/06/03 01:31:05;;;;;;;5.82;3.42;;;;;;;19.50;73.65;100696.22;5020702;28;20055;-67
2021/06/03 01:33:50;;;;;;;4.90;3.42;;;;;;;19.52;73.47;100694.19;5034646;28;20414;-67
2021/06/03 01:36:34;;;;;;;8.10;3.53;;;;;;;19.55;73.59;100698.38;5035552;28;20056;-68
2021/06/03 01:39:18;;;;;;;6.20;3.80;;;;;;;19.56;73.59;100700.88;5034175;28;20121;-67
2021/06/03 01:42:03;;;;;;;4.93;3.30;;;;;;;19.54;73.73;100702.94;5034465;28;20131;-67
2021/06/03 01:44:47;;;;;;;5.85;3.70;;;;;;;19.54;74.30;100697.53;5020363;28;20565;-67
2021/06/03 01:47:32;;;;;;;6.50;3.85;;;;;;;19.43;74.71;100699.91;5033977;28;20430;-67
2021/06/03 01:50:17;;;;;;;3.80;3.40;;;;;;;19.40;74.70;100693.00;5034268;28;20110;-67
2021/06/03 01:53:02;;;;;;;6.32;4.45;;;;;;;19.43;74.77;100689.06;5033986;28;20517;-67
2021/06/03 01:55:46;;;;;;;4.75;3.45;;;;;;;19.35;75.79;100697.31;5020134;28;20056;-67
2021/06/03 01:58:31;;;;;;;5.32;3.53;;;;;;;19.36;75.87;100698.97;5033713;28;20102;-67
2021/06/03 02:01:15;;;;;;;4.60;3.92;;;;;;;19.34;76.13;100695.63;5020070;28;20180;-67
2021/06/03 02:03:59;;;;;;;5.53;3.88;;;;;;;19.34;75.78;100701.03;5020007;28;20048;-67
2021/06/03 02:06:43;;;;;;;4.53;3.58;;;;;;;19.30;76.04;100700.56;5035107;28;20118;-67
2021/06/03 02:09:27;;;;;;;5.63;3.85;;;;;;;19.18;77.31;100709.38;5034662;28;20048;-67
2021/06/03 02:12:12;;;;;;;6.00;3.72;;;;;;;19.12;77.45;100710.09;5033925;28;20506;-67
2021/06/03 02:14:56;;;;;;;;;;;;;;;19.06;78.04;100717.09;5034267;28;20067;-67
2021/06/03 02:17:44;;;;;;;5.72;3.33;;;;;;;18.99;78.34;100726.13;5034033;28;19920;-67
2021/06/03 02:20:33;;;;;;;6.35;3.70;;;;;;;19.03;78.68;100722.88;5033991;28;20064;-67
2021/06/03 02:23:17;;;;;;;7.07;3.67;;;;;;;19.01;78.59;100718.66;5033499;28;20048;-66
2021/06/03 02:26:03;;;;;;;5.00;3.97;;;;;;;18.99;78.86;100729.66;5033825;28;20505;-67
2021/06/03 02:28:48;;;;;;;5.70;3.63;;;;;;;18.88;79.73;100732.00;5033485;28;20044;-67
2021/06/03 02:31:32;;;;;;;3.97;3.58;;;;;;;18.73;81.01;100740.09;5019548;28;20474;-67
2021/06/03 02:34:17;;;;;;;9.18;4.30;;;;;;;18.68;81.34;100738.97;5034432;28;20103;-66
2021/06/03 02:37:07;;;;;;;5.95;4.05;;;;;;;18.59;82.00;100738.19;5033446;28;20091;-67
2021/06/03 02:40:03;;;;;;;4.97;3.75;;;;;;;18.49;82.88;100742.22;5032319;28;20053;-67
2021/06/03 02:42:48;;;;;;;4.60;3.60;;;;;;;18.48;83.37;100744.06;5034288;28;20048;-67
2021/06/03 02:45:34;;;;;;;4.55;3.80;;;;;;;18.46;84.04;100739.88;5033114;28;20517;-67
2021/06/03 02:48:18;;;;;;;4.13;3.72;;;;;;;18.42;84.06;100741.25;5033835;28;20074;-67
2021/06/03 02:51:03;;;;;;;5.40;4.00;;;;;;;18.42;83.95;100752.03;5033446;28;20048;-67
2021/06/03 02:53:48;;;;;;;6.90;4.32;;;;;;;18.41;84.28;100750.38;5032852;28;20053;-67
2021/06/03 02:56:31;;;;;;;8.00;4.03;;;;;;;18.41;84.28;100744.16;5033900;28;20079;-67
2021/06/03 02:59:15;;;;;;;4.10;3.70;;;;;;;18.47;83.59;100746.94;5032551;28;20052;-67
2021/06/03 03:02:00;;;;;;;6.93;4.13;;;;;;;18.50;83.50;100743.88;5032974;28;20218;-67
2021/06/03 03:04:44;;;;;;;5.03;3.78;;;;;;;18.53;83.60;100743.50;5033832;28;20052;-65
2021/06/03 03:07:29;;;;;;;6.10;3.72;;;;;;;18.50;84.14;100743.88;5032771;28;20064;-66
2021/06/03 03:10:22;;;;;;;5.93;4.15;;;;;;;18.45;84.87;100740.91;5033533;28;20530;-67
2021/06/03 03:13:06;;;;;;;7.45;4.18;;;;;;;18.45;85.07;100740.91;5032750;28;20047;-68
2021/06/03 03:15:50;;;;;;;6.45;4.10;;;;;;;18.40;85.21;100746.00;5033763;28;20099;-67
2021/06/03 03:18:35;;;;;;;3.95;3.63;;;;;;;18.35;85.96;100740.31;5032660;28;20040;-65
2021/06/03 03:21:19;;;;;;;6.93;4.15;;;;;;;18.35;86.79;100751.13;5032696;28;20049;-67
2021/06/03 03:24:03;;;;;;;5.97;4.32;;;;;;;18.38;86.38;100737.25;5032608;28;20048;-67
2021/06/03 03:26:47;;;;;;;3.45;3.10;;;;;;;18.32;86.91;100743.38;5032464;28;20103;-67
2021/06/03 03:29:31;;;;;;;;;;;;;;;18.28;87.51;100750.13;5033937;28;20088;-67
2021/06/03 03:32:15;;;;;;;4.13;3.72;;;;;;;18.20;87.94;100744.78;5018330;28;19963;-67
2021/06/03 03:35:00;;;;;;;4.43;4.03;;;;;;;18.16;88.53;100751.59;5033500;28;20052;-67
2021/06/03 03:37:46;;;;;;;4.68;3.95;;;;;;;18.14;88.79;100756.28;5032682;28;20142;-67
2021/06/03 03:40:30;;;;;;;4.70;3.75;;;;;;;18.11;88.84;100748.56;5033244;28;20505;-67
2021/06/03 03:43:15;;;;;;;4.70;3.92;;;;;;;18.06;89.34;100748.28;5032447;28;20060;-67
2021/06/03 03:45:58;;;;;;;5.80;4.30;;;;;;;18.02;89.70;100749.66;5033285;28;20103;-67
2021/06/03 03:48:43;;;;;;;4.03;3.50;;;;;;;17.97;90.02;100754.75;5032109;28;20102;-67
2021/06/03 03:51:27;;;;;;;4.85;4.13;;;;;;;17.91;90.55;100747.38;5035739;28;20099;-67
2021/06/03 03:54:11;;;;;;;5.75;4.32;;;;;;;17.85;91.01;100744.56;5036255;28;20052;-67
2021/06/03 03:56:55;;;;;;;4.63;4.13;;;;;;;17.78;91.50;100747.13;5036147;28;20056;-67
2021/06/03 03:59:39;;;;;;;5.07;4.50;;;;;;;17.78;91.82;100747.13;5036319;28;20106;-66
2021/06/03 04:02:23;;;;;;;6.10;4.45;;;;;;;17.75;91.64;100755.59;5036047;28;20548;-67
2021/06/03 04:05:08;;;;;;;7.95;4.78;;;;;;;17.77;91.94;100761.66;5037012;28;20548;-67
2021/06/03 04:07:52;;;;;;;6.63;4.10;;;;;;;17.74;92.21;100766.56;5035539;28;20049;-67
2021/06/03 04:10:35;;;;;;;8.65;3.97;;;;;;;17.70;92.72;100771.44;5036251;28;20418;-67
2021/06/03 04:13:20;;;;;;;4.90;3.95;;;;;;;17.69;93.27;100768.94;5036343;28;20056;-67
2021/06/03 04:16:04;;;;;;;6.60;4.18;;;;;;;17.68;93.30;100772.63;5036798;28;20056;-67
2021/06/03 04:18:48;;;;;;;7.43;4.75;;;;;;;17.69;93.28;100769.78;5036093;28;20056;-67
2021/06/03 04:21:32;;;;;;;6.10;4.15;;;;;;;17.68;93.37;100778.03;5036745;28;20099;-67
2021/06/03 04:24:16;;;;;;;5.68;4.70;;;;;;;17.65;93.61;100781.94;5021701;28;20045;-65
2021/06/03 04:27:00;;;;;;;4.70;4.20;;;;;;;17.58;93.71;100778.28;5036833;28;20048;-67
2021/06/03 04:29:44;;;;;;;4.82;4.32;;;;;;;17.49;94.98;100784.72;5036748;28;20525;-66
2021/06/03 04:32:28;;;;;;;5.25;4.75;;;;;;;17.50;95.73;100783.69;5035563;28;20048;-67
2021/06/03 04:35:13;;;;;;;4.40;3.97;;;;;;;17.48;96.15;100792.97;5036470;28;20056;-67
2021/06/03 04:37:57;;;;;;;5.65;4.28;;;;;;;17.47;96.16;100792.16;5035350;28;20124;-65
2021/06/03 04:40:41;;;;;;;5.95;4.43;;;;;;;17.50;95.77;100796.34;5035873;28;20520;-67
2021/06/03 04:43:26;;;;;;;5.00;4.47;;;;;;;17.53;95.71;100799.53;5035587;28;20052;-67
2021/06/03 04:46:11;;;;;;;4.65;4.18;;;;;;;17.56;95.79;100796.47;5021730;28;20094;-67
2021/06/03 04:48:55;;;;;;;6.22;4.30;;;;;;;17.59;95.73;100800.69;5035199;28;20505;-67
2021/06/03 04:51:39;;;;;;;4.32;3.92;;;;;;;17.61;95.54;100802.16;5021689;28;20133;-67
2021/06/03 04:54:23;;;;;;;4.75;4.35;;;;;;;17.68;95.55;100805.84;5035373;28;20063;-67
2021/06/03 04:57:07;;;;;;;4.95;4.15;;;;;;;17.73;95.31;100803.44;5035253;28;20048;-67
2021/06/03 04:59:51;;;;;;;4.63;4.22;;;;;;;17.81;95.05;100806.09;5035026;28;20115;-66
2021/06/03 05:02:35;;;;;;;5.05;4.47;;;;;;;17.90;94.78;100804.22;5034300;28;20051;-67
2021/06/03 05:05:19;;;;;;;6.47;4.57;;;;;;;17.97;94.19;100805.16;5035363;28;20053;-67
2021/06/03 05:08:04;;;;;;;4.85;4.43;;;;;;;18.09;94.02;100811.81;5034707;28;20528;-66
2021/06/03 05:10:48;;;;;;;7.55;4.68;;;;;;;18.20;93.73;100812.25;5036041;28;20080;-67
2021/06/03 05:13:32;;;;;;;6.18;4.55;;;;;;;18.34;92.92;100813.38;5035047;28;20060;-67
2021/06/03 05:16:16;;;;;;;8.05;5.65;;;;;;;18.51;92.11;100815.75;5034958;28;20049;-67
2021/06/03 05:19:00;;;;;;;18.38;6.57;;;;;;;18.65;91.94;100821.19;5034787;28;20106;-66
2021/06/03 05:21:44;;;;;;;6.63;5.90;;;;;;;18.73;91.75;100828.38;5020843;28;20051;-66
2021/06/03 05:24:28;;;;;;;8.35;5.88;;;;;;;18.87;91.62;100827.59;5034538;28;20146;-67
2021/06/03 05:27:12;;;;;;;6.43;5.78;;;;;;;19.07;90.32;100839.53;5020722;28;20052;-66
2021/06/03 05:29:56;;;;;;;9.15;6.22;;;;;;;19.31;88.67;100836.59;5035714;28;20053;-67
2021/06/03 05:32:40;;;;;;;7.35;6.18;;;;;;;19.48;88.15;100829.97;5034568;28;20080;-66
2021/06/03 05:35:25;;;;;;;6.22;5.38;;;;;;;19.71;87.65;100833.41;5034378;28;20048;-66
2021/06/03 05:38:09;;;;;;;10.95;6.20;;;;;;;19.93;85.64;100832.41;5034368;28;20048;-67
2021/06/03 05:40:53;;;;;;;10.70;6.78;;;;;;;20.18;84.20;100831.03;5035505;28;20527;-66
2021/06/03 05:43:37;;;;;;;8.20;7.07;;;;;;;20.43;83.05;100835.06;5035349;28;20525;-67
2021/06/03 05:46:20;;;;;;;8.70;6.57;;;;;;;20.60;81.21;100836.50;5035589;28;20060;-67
2021/06/03 05:49:05;;;;;;;9.00;6.90;;;;;;;20.83;78.86;100831.69;5034143;28;20592;-65
2021/06/03 05:51:50;;;;;;;9.93;6.53;;;;;;;20.95;78.78;100833.66;5035010;28;20160;-67
2021/06/03 05:54:34;;;;;;;9.52;6.53;;;;;;;21.05;77.80;100836.84;5033995;28;20414;-67
2021/06/03 05:57:18;;;;;;;13.13;6.35;;;;;;;21.23;77.51;100837.19;5034922;28;20494;-66
2021/06/03 06:00:08;;;;;;;7.10;5.72;;;;;;;21.40;76.84;100836.66;5033563;28;20129;-67
2021/06/03 06:02:57;;;;;;;6.32;5.45;;;;;;;21.57;75.10;100838.03;5033286;28;20079;-67
2021/06/03 06:09:04;;;;;;;9.32;5.70;;;;;;;21.99;72.91;100853.28;5032139;28;20056;-67
2021/06/03 06:11:48;;;;;;;6.45;5.35;;;;;;;21.97;72.20;100856.19;5033380;28;20107;-67
2021/06/03 06:14:32;;;;;;;7.20;4.63;;;;;;;21.93;71.08;100854.94;5032997;28;20603;-67
2021/06/03 06:17:17;;;;;;;8.90;5.45;;;;;;;22.08;71.76;100854.78;5034090;28;20505;-67
2021/06/03 06:20:03;;;;;;;6.65;5.50;;;;;;;22.26;71.94;100853.16;5018889;28;20083;-67
2021/06/03 06:22:48;;;;;;;6.85;5.50;;;;;;;22.34;70.92;100855.69;5033786;28;20171;-66
2021/06/03 06:25:32;;;;;;;5.93;4.78;;;;;;;22.37;69.95;100871.56;5033978;28;20044;-66
2021/06/03 06:28:16;;;;;;;5.55;4.90;;;;;;;22.35;69.66;100865.50;5033883;28;20530;-68
2021/06/03 06:31:01;;;;;;;7.45;5.05;;;;;;;22.38;69.24;100872.38;5033266;28;20466;-68
2021/06/03 06:33:46;;;;;;;4.93;4.13;;;;;;;22.45;68.20;100874.13;5018878;28;20103;-66
2021/06/03 06:36:31;;;;;;;6.10;4.40;;;;;;;22.61;67.62;100870.19;5033774;28;20068;-66
2021/06/03 06:39:17;;;;;;;5.10;4.30;;;;;;;22.62;66.88;100871.84;5032642;28;20410;-66
2021/06/03 06:42:04;;;;;;;6.70;4.40;;;;;;;22.82;66.62;100872.72;5032934;28;20060;-65
2021/06/03 06:44:49;;;;;;;4.70;3.45;;;;;;;22.93;63.60;100877.50;5032364;28;20124;-66
2021/06/03 06:47:36;;;;;;;6.28;3.45;;;;;;;22.83;64.48;100886.06;5032778;28;20055;-66
2021/06/03 06:50:21;;;;;;;6.80;3.45;;;;;;;22.90;63.70;100875.22;5032628;28;20056;-67
2021/06/03 06:53:06;;;;;;;4.13;3.72;;;;;;;22.90;63.83;100884.19;5032390;28;20048;-67
2021/06/03 06:55:50;;;;;;;5.05;3.70;;;;;;;22.71;64.93;100874.16;5018347;28;20079;-66
2021/06/03 06:58:34;;;;;;;;;;;;;;;22.77;65.21;100889.63;5032684;28;20468;-67
2021/06/03 07:01:18;;;;;;;7.10;4.18;;;;;;;22.77;64.98;100886.91;5033719;28;19939;-66
2021/06/03 07:04:03;;;;;;;7.57;3.83;;;;;;;22.74;66.58;100876.47;5032596;28;20056;-66
2021/06/03 07:06:47;;;;;;;8.95;3.70;;;;;;;22.90;65.93;100878.75;5032465;28;20501;-66
2021/06/03 07:09:33;;;;;;;6.00;4.00;;;;;;;23.10;66.13;100882.31;5032319;28;20048;-65
2021/06/03 07:12:17;;;;;;;5.45;3.67;;;;;;;23.04;62.87;100883.16;5033118;28;20048;-66
2021/06/03 07:15:01;;;;;;;6.25;4.35;;;;;;;22.89;63.33;100885.25;5033549;28;20486;-67
2021/06/03 07:17:45;;;;;;;11.32;4.35;;;;;;;22.90;63.76;100881.47;5031943;28;20517;-67
2021/06/03 07:20:29;;;;;;;4.53;3.90;;;;;;;23.04;64.25;100888.59;5033071;28;20107;-66
2021/06/03 07:23:13;;;;;;;5.95;3.95;;;;;;;22.93;63.92;100878.34;5032002;28;20068;-66
2021/06/03 07:25:57;;;;;;;;;;;;;;;22.99;64.62;100877.50;5033199;28;20072;-66
2021/06/03 07:28:41;;;;;;;7.13;4.07;;;;;;;23.10;64.91;100884.19;5032858;28;19971;-67
2021/06/03 07:31:25;;;;;;;;;;;;;;;23.26;65.45;100876.50;5018752;28;20123;-66
2021/06/03 07:34:09;;;;;;;7.60;4.37;;;;;;;23.46;64.54;100876.44;5033026;28;20006;-67
2021/06/03 07:36:53;;;;;;;;;;;;;;;23.60;63.37;100883.50;5032539;28;20094;-66
2021/06/03 07:39:37;;;;;;;4.30;3.90;;;;;;;23.74;61.88;100874.28;5031809;28;19940;-66
2021/06/03 07:42:21;;;;;;;4.13;3.72;;;;;;;23.49;61.87;100879.59;5032872;28;20112;-66
2021/06/03 07:45:08;;;;;;;5.40;4.22;;;;;;;23.40;62.22;100882.72;5017819;28;20053;-66
2021/06/03 07:47:55;;;;;;;4.57;4.18;;;;;;;23.26;63.19;100879.22;5031426;28;20049;-66
2021/06/03 07:50:40;;;;;;;5.00;3.58;;;;;;;23.40;62.52;100890.88;5031533;28;20128;-66
2021/06/03 07:53:24;;;;;;;4.35;3.95;;;;;;;23.60;62.70;100883.50;5031801;28;20047;-64
2021/06/03 07:56:08;;;;;;;;;;;;;;;23.67;61.49;100874.31;5032933;28;20048;-67
2021/06/03 07:58:52;;;;;;;5.82;4.30;;;;;;;23.74;61.74;100879.72;5031801;28;19931;-67
2021/06/03 08:01:36;;;;;;;;;;;;;;;23.51;62.30;100874.75;5032895;28;20108;-67
2021/06/03 08:04:20;;;;;;;5.60;4.30;;;;;;;23.56;62.45;100888.56;5032531;28;19920;-67
2021/06/03 08:07:05;;;;;;;5.18;3.95;;;;;;;23.58;63.43;100882.91;5032578;28;20417;-67
2021/06/03 08:09:49;;;;;;;9.35;4.40;;;;;;;23.64;62.75;100888.31;5031364;28;20127;-67
2021/06/03 08:12:33;;;;;;;;;;;;;;;23.63;61.47;100892.09;5031834;28;20426;-67
2021/06/03 08:15:17;;;;;;;5.00;4.47;;;;;;;23.48;61.00;100886.06;5031620;28;19922;-67
2021/06/03 08:18:02;;;;;;;4.97;4.25;;;;;;;23.47;61.61;100889.00;5032125;28;20262;-66
2021/06/03 08:20:48;;;;;;;6.30;3.80;;;;;;;23.59;61.67;100879.97;5031176;28;20410;-67
2021/06/03 08:23:32;;;;;;;5.93;3.65;;;;;;;23.70;60.50;100876.59;5031450;28;20068;-67
2021/06/03 08:26:17;;;;;;;5.18;3.58;;;;;;;23.74;60.46;100868.84;5032340;28;20060;-67
2021/06/03 08:29:00;;;;;;;5.43;3.40;;;;;;;23.86;59.73;100878.03;5032256;28;20167;-67
2021/06/03 08:31:44;;;;;;;;;;;;;;;23.94;59.40;100881.34;5031702;28;20457;-67
2021/06/03 08:34:28;;;;;;;4.63;3.63;;;;;;;23.98;60.40;100882.59;5031202;28;20258;-67
2021/06/03 08:37:12;;;;;;;;;;;;;;;24.04;58.64;100879.00;5033067;28;20334;-66
2021/06/03 08:39:56;;;;;;;4.85;3.25;;;;;;;24.05;58.07;100872.50;5034851;28;20000;-67
2021/06/03 08:42:40;;;;;;;;;;;;;;;24.01;56.38;100882.16;5035429;28;20082;-66
2021/06/03 08:45:26;;;;;;;4.77;3.30;;;;;;;24.16;56.31;100874.53;5034976;28;19919;-66
2021/06/03 08:48:11;;;;;;;4.18;3.38;;;;;;;24.38;56.91;100887.63;5036035;28;20289;-67
2021/06/03 08:50:59;;;;;;;4.75;3.78;;;;;;;24.50;56.13;100882.31;5020793;28;20084;-67
2021/06/03 08:53:43;;;;;;;4.53;3.15;;;;;;;24.47;56.92;100877.28;5034800;28;20107;-67
2021/06/03 08:56:28;;;;;;;3.83;3.40;;;;;;;24.51;56.60;100878.53;5034531;28;20382;-67
2021/06/03 08:59:12;;;;;;;5.25;3.92;;;;;;;24.53;56.71;100874.56;5020511;28;20067;-67
2021/06/03 09:01:56;;;;;;;6.22;3.83;;;;;;;24.67;55.27;100878.03;5020611;28;20052;-67
2021/06/03 09:04:40;;;;;;;;;;;;;;;24.66;57.58;100876.34;5036053;28;20048;-67
2021/06/03 09:07:33;;;;;;;8.27;3.57;;;;;;;24.82;56.40;100878.56;5035554;28;19935;-67
2021/06/03 09:10:25;;;;;;;5.53;3.25;;;;;;;24.78;54.58;100871.84;5035499;28;20048;-66
2021/06/03 09:13:15;;;;;;;4.47;3.58;;;;;;;25.09;55.32;100871.81;5035269;28;20144;-67
2021/06/03 09:16:09;;;;;;;5.03;3.50;;;;;;;25.27;53.78;100885.53;5034554;28;20048;-67
2021/06/03 09:18:58;;;;;;;4.57;3.40;;;;;;;25.14;54.80;100877.44;5035069;28;20044;-67
2021/06/03 09:21:51;;;;;;;4.38;3.22;;;;;;;25.05;55.33;100878.78;5033909;28;20080;-68
2021/06/03 09:24:35;;;;;;;5.10;3.88;;;;;;;24.97;55.43;100876.31;5035198;28;20087;-67
2021/06/03 09:27:19;;;;;;;;;;;;;;;24.99;56.54;100883.22;5034599;28;20071;-67
2021/06/03 09:30:03;;;;;;;7.23;4.50;;;;;;;25.18;55.90;100875.91;5033830;28;20006;-68
2021/06/03 09:32:51;;;;;;;4.38;3.75;;;;;;;25.53;55.27;100874.34;5034155;28;20049;-67
2021/06/03 09:35:53;;;;;;;6.43;3.95;;;;;;;25.38;53.20;100873.88;5034192;28;20156;-66
2021/06/03 09:39:07;;;;;;;5.38;2.95;;;;;;;25.28;52.81;100871.66;5034196;28;20143;-67
2021/06/03 09:41:53;;;;;;;4.18;3.10;;;;;;;25.80;51.72;100870.25;5035426;28;20091;-67
2021/06/03 09:44:45;;;;;;;6.38;3.05;;;;;;;25.85;51.29;100873.16;5035081;28;20048;-68
2021/06/03 09:47:38;;;;;;;3.95;3.38;;;;;;;26.02;51.12;100880.50;5032987;28;20041;-68
2021/06/03 09:50:23;;;;;;;3.80;3.10;;;;;;;26.51;49.02;100872.09;5034546;28;20052;-66
2021/06/03 09:53:07;;;;;;;4.18;3.30;;;;;;;26.99;48.63;100865.41;5034737;28;20124;-68
2021/06/03 09:55:51;;;;;;;4.80;3.17;;;;;;;27.27;48.46;100865.59;5033681;28;20056;-67
2021/06/03 09:58:39;;;;;;;;;;;;;;;27.41;46.91;100869.75;5034667;28;20059;-66
2021/06/03 10:01:40;;;;;;;7.50;3.70;;;;;;;27.63;46.31;100865.31;5033605;28;19950;-67
2021/06/03 10:04:30;;;;;;;4.45;3.88;;;;;;;27.34;46.94;100862.72;5033195;28;20422;-66
2021/06/03 10:07:27;;;;;;;3.80;3.10;;;;;;;28.11;46.56;100856.78;5034340;28;20052;-67
2021/06/03 10:10:12;;;;;;;4.70;3.78;;;;;;;28.39;45.26;100863.13;5033424;28;20084;-67
2021/06/03 10:12:56;;;;;;;4.50;3.45;;;;;;;28.61;44.11;100863.22;5034612;28;20119;-68
2021/06/03 10:15:42;;;;;;;5.38;3.45;;;;;;;29.11;42.84;100854.00;5033073;28;20045;-68
2021/06/03 10:18:29;;;;;;;7.65;4.05;;;;;;;29.96;40.49;100851.66;5032981;28;20043;-68
2021/06/03 10:21:13;;;;;;;3.45;3.08;;;;;;;30.55;41.01;100846.03;5032902;28;20055;-68
2021/06/03 10:23:56;;;;;;;;;;;;;;;31.43;38.54;100857.25;5034745;28;20052;-69
2021/06/03 10:26:57;;;;;;;4.43;3.55;;;;;;;32.27;36.99;100853.28;5034071;28;20035;-66
2021/06/03 10:29:41;;;;;;;6.13;3.72;;;;;;;32.96;35.96;100848.97;5018834;28;20064;-66
2021/06/03 10:32:30;;;;;;;6.25;3.72;;;;;;;31.80;38.03;100861.63;5033719;28;20055;-66
2021/06/03 10:35:18;;;;;;;5.93;3.50;;;;;;;31.17;38.27;100849.91;5032814;28;20052;-66
2021/06/03 10:38:05;;;;;;;4.85;3.75;;;;;;;31.02;38.39;100852.50;5018712;28;20095;-66
2021/06/03 10:40:52;;;;;;;6.68;3.58;;;;;;;32.59;36.29;100848.38;5033821;28;20047;-66
2021/06/03 10:43:37;;;;;;;6.03;3.78;;;;;;;32.33;36.76;100843.91;5032462;28;20052;-67
2021/06/03 10:46:21;;;;;;;6.80;3.75;;;;;;;31.51;37.50;100841.06;5033559;28;20087;-66
2021/06/03 10:49:05;;;;;;;4.50;3.60;;;;;;;30.73;39.34;100843.75;5032259;28;20522;-67
2021/06/03 10:51:50;;;;;;;4.07;3.65;;;;;;;31.15;38.87;100838.34;5018696;28;20049;-68
2021/06/03 10:54:41;;;;;;;4.20;3.25;;;;;;;33.22;35.75;100832.16;5032565;28;20103;-69
2021/06/03 10:57:44;;;;;;;3.95;3.40;;;;;;;35.82;32.21;100831.25;5033523;28;20107;-67
2021/06/03 11:00:37;;;;;;;6.23;3.40;;;;;;;37.89;28.79;100829.22;5033065;28;20111;-67
2021/06/03 11:03:26;;;;;;;5.75;4.10;;;;;;;37.69;28.56;100826.06;5032548;28;20080;-68
2021/06/03 11:06:12;;;;;;;6.50;4.05;;;;;;;35.16;31.71;100843.31;5032166;28;20111;-66
2021/06/03 11:09:02;;;;;;;4.35;3.38;;;;;;;34.60;33.02;100829.09;5033337;28;20076;-67
2021/06/03 11:11:47;;;;;;;4.97;3.78;;;;;;;33.80;33.21;100835.06;5033037;28;20048;-67
2021/06/03 11:14:31;;;;;;;4.88;3.92;;;;;;;34.77;32.39;100839.78;5032999;28;20419;-67
2021/06/03 11:17:16;;;;;;;4.45;3.60;;;;;;;34.84;31.58;100824.50;5032130;28;20457;-66
2021/06/03 11:20:04;;;;;;;5.30;3.78;;;;;;;34.97;31.34;100828.53;5032084;28;20056;-67
2021/06/03 11:22:48;;;;;;;8.40;4.53;;;;;;;34.33;31.90;100837.03;5032996;28;20064;-67
2021/06/03 11:25:37;;;;;;;5.82;4.00;;;;;;;34.36;33.14;100839.22;5031733;28;20095;-67
2021/06/03 11:28:21;;;;;;;5.80;3.65;;;;;;;35.02;31.49;100831.25;5031844;28;20052;-67
2021/06/03 11:31:25;;;;;;;7.35;4.10;;;;;;;34.36;32.05;100822.59;5032970;28;20636;-67
2021/06/03 11:34:09;;;;;;;7.13;3.92;;;;;;;32.34;35.66;100829.00;5031862;28;20052;-67
2021/06/03 11:36:59;;;;;;;7.57;3.70;;;;;;;31.93;36.74;100833.56;5032808;28;20060;-67
2021/06/03 11:39:56;;;;;;;6.30;4.10;;;;;;;29.54;42.08;100837.63;5032525;28;20142;-67
2021/06/03 11:42:46;;;;;;;5.47;3.88;;;;;;;29.08;44.50;100832.53;5032954;28;20048;-67
2021/06/03 11:45:49;;;;;;;5.05;3.67;;;;;;;29.95;41.20;100823.31;5031773;28;20217;-67
2021/06/03 11:48:34;;;;;;;7.45;4.07;;;;;;;31.25;39.20;100819.13;5032499;28;20099;-67
2021/06/03 11:51:18;;;;;;;5.25;3.90;;;;;;;32.36;36.62;100810.28;5032408;28;20083;-65
2021/06/03 11:54:02;;;;;;;6.80;4.50;;;;;;;33.40;34.03;100801.97;5032772;28;20472;-67
2021/06/03 11:57:12;;;;;;;6.25;3.72;;;;;;;33.95;33.11;100799.00;5017752;28;20092;-68
2021/06/03 11:59:59;;;;;;;5.03;3.92;;;;;;;34.77;31.97;100801.81;5032883;28;20056;-66
2021/06/03 12:02:44;;;;;;;6.32;3.75;;;;;;;34.36;32.38;100791.34;5032466;28;20119;-67
2021/06/03 12:05:43;;;;;;;5.15;3.75;;;;;;;35.31;30.52;100804.38;5031820;28;20064;-67
2021/06/03 12:08:40;;;;;;;7.05;3.63;;;;;;;35.60;30.57;100800.44;5031190;28;20080;-67
2021/06/03 12:11:33;;;;;;;5.47;3.53;;;;;;;34.84;31.60;100785.69;5034092;28;20056;-66
2021/06/03 12:14:22;;;;;;;4.47;3.80;;;;;;;34.07;33.10;100790.38;5036321;28;20045;-67
2021/06/03 12:17:07;;;;;;;4.57;3.50;;;;;;;34.26;33.89;100783.09;5036591;28;20147;-67
2021/06/03 12:19:52;;;;;;;5.25;3.47;;;;;;;34.19;33.78;100788.94;5035484;28;20067;-67
2021/06/03 12:22:36;;;;;;;4.75;3.30;;;;;;;33.23;33.01;100790.41;5035409;28;20581;-66
2021/06/03 12:25:20;;;;;;;4.45;3.20;;;;;;;30.84;37.20;100792.34;5035223;28;20048;-67
2021/06/03 12:28:05;;;;;;;5.88;3.80;;;;;;;30.51;38.63;100784.31;5034983;28;20132;-67
2021/06/03 12:30:49;;;;;;;4.40;3.50;;;;;;;31.37;38.67;100781.16;5035208;28;20091;-68
2021/06/03 12:33:35;;;;;;;3.97;3.20;;;;;;;30.86;37.55;100787.41;5035052;28;20052;-67
2021/06/03 12:36:19;;;;;;;5.82;3.65;;;;;;;30.15;39.99;100782.34;5036159;28;20052;-67
2021/06/03 12:39:04;;;;;;;4.25;3.60;;;;;;;29.78;40.77;100781.31;5036023;28;20118;-67
2021/06/03 12:41:51;;;;;;;5.78;3.78;;;;;;;30.41;40.04;100774.06;5034907;28;20126;-67
2021/06/03 12:44:35;;;;;;;4.72;3.83;;;;;;;30.43;39.37;100766.38;5034764;28;20418;-67
2021/06/03 12:47:23;;;;;;;4.72;3.28;;;;;;;30.50;40.71;100760.66;5034796;28;20048;-67
2021/06/03 12:50:09;;;;;;;6.10;3.83;;;;;;;30.85;39.46;100755.47;5034851;28;20410;-67
2021/06/03 12:52:53;;;;;;;6.32;3.55;;;;;;;31.52;38.44;100756.44;5035596;28;20052;-67
2021/06/03 12:55:38;;;;;;;6.30;3.53;;;;;;;32.13;37.77;100750.88;5035956;28;20099;-67
2021/06/03 12:58:23;;;;;;;4.63;3.58;;;;;;;32.84;37.50;100746.25;5035408;28;20043;-68
2021/06/03 13:01:09;;;;;;;6.85;3.53;;;;;;;33.76;34.13;100742.69;5034690;28;20130;-67